createdAt,value
2023-05-10T00:01:30.054Z,58.44
2023-05-10T00:06:34.954Z,58.25
2023-05-10T00:11:38.325Z,58.64
2023-05-10T00:16:42.053Z,58.71
2023-05-10T00:21:46.987Z,58.45
2023-05-10T00:26:50.636Z,58.09
2023-05-10T00:31:54.154Z,58.44
2023-05-10T00:36:59.213Z,58.34
2023-05-10T00:42:02.776Z,58.69
2023-05-10T00:47:06.272Z,58.64
2023-05-10T00:52:11.587Z,58.67
2023-05-10T00:57:15.264Z,59.45
2023-05-10T01:02:19.081Z,59.45
2023-05-10T01:07:24.482Z,58.96
2023-05-10T01:12:28.699Z,59.47
2023-05-10T01:17:33.132Z,58.92
2023-05-10T01:23:02.649Z,59.66
2023-05-10T01:28:29.267Z,59.90
2023-05-10T01:33:37.797Z,59.62
2023-05-10T01:38:45.473Z,59.74
2023-05-10T01:44:12.089Z,60.31
2023-05-10T01:49:25.815Z,60.27
2023-05-10T01:54:31.300Z,59.71
2023-05-10T01:59:41.968Z,59.79
2023-05-10T02:04:48.721Z,59.91
2023-05-10T02:09:53.321Z,59.59
2023-05-10T02:14:58.094Z,60.26
2023-05-10T02:20:04.979Z,59.40
2023-05-10T02:25:11.059Z,59.78
2023-05-10T02:30:15.657Z,59.81
2023-05-10T02:35:21.627Z,59.79
2023-05-10T02:40:28.637Z,60.06
2023-05-10T02:45:34.615Z,60.30
2023-05-10T02:50:41.428Z,59.04
2023-05-10T02:55:48.696Z,58.98
2023-05-10T03:00:52.337Z,57.84
2023-05-10T03:05:57.851Z,57.31
2023-05-10T03:11:17.530Z,58.39
2023-05-10T03:16:28.041Z,58.49
2023-05-10T03:21:34.553Z,58.29
2023-05-10T03:26:39.559Z,58.33
2023-05-10T03:31:43.269Z,58.24
2023-05-10T03:36:48.303Z,57.52
2023-05-10T03:41:51.770Z,57.73
2023-05-10T03:46:55.319Z,55.76
2023-05-10T03:52:00.289Z,55.04
2023-05-10T03:57:04.030Z,53.54
2023-05-10T04:02:07.745Z,51.68
2023-05-10T04:07:12.892Z,50.30
2023-05-10T04:12:16.311Z,49.20
2023-05-10T04:17:19.853Z,48.42
2023-05-10T04:22:24.741Z,46.70
2023-05-10T04:27:28.241Z,46.28
2023-05-10T04:32:32.531Z,45.51
2023-05-10T04:37:37.707Z,44.60
2023-05-10T04:42:43.449Z,43.34
2023-05-10T04:47:47.155Z,42.78
2023-05-10T04:52:53.204Z,42.00
2023-05-10T04:57:58.386Z,41.61
2023-05-10T05:03:02.240Z,41.47
2023-05-10T05:08:08.268Z,40.41
2023-05-10T05:13:11.787Z,40.63
2023-05-10T05:18:15.335Z,40.46
2023-05-10T05:23:21.848Z,39.16
2023-05-10T05:28:25.216Z,39.32
2023-05-10T05:33:28.586Z,38.46
2023-05-10T05:38:33.732Z,37.95
2023-05-10T05:43:38.532Z,37.00
2023-05-10T05:48:42.158Z,36.23
2023-05-10T05:53:47.013Z,35.24
2023-05-10T05:58:50.812Z,35.53
2023-05-10T06:03:54.431Z,35.31
2023-05-10T06:08:59.494Z,33.63
2023-05-10T06:14:03.178Z,32.89
2023-05-10T06:19:06.630Z,32.17
2023-05-10T06:24:11.493Z,29.80
2023-05-10T06:29:16.485Z,30.13
2023-05-10T06:34:19.995Z,29.17
2023-05-10T06:39:24.945Z,28.88
2023-05-10T06:44:28.442Z,27.79
2023-05-10T06:49:32.045Z,26.15
2023-05-10T06:54:36.912Z,25.82
2023-05-10T06:59:40.393Z,24.82
2023-05-10T07:04:43.826Z,25.17
2023-05-10T07:09:49.041Z,24.77
2023-05-10T07:14:52.533Z,24.94
2023-05-10T07:19:55.950Z,25.44
2023-05-10T07:25:00.932Z,25.57
2023-05-10T07:30:04.346Z,23.37
2023-05-10T07:35:10.345Z,23.17
2023-05-10T07:40:15.475Z,22.25
2023-05-10T07:45:19.257Z,21.67
2023-05-10T07:50:22.936Z,20.48
2023-05-10T07:55:27.783Z,20.44
2023-05-10T08:00:31.093Z,19.74
2023-05-10T08:05:35.860Z,18.04
2023-05-10T08:10:41.340Z,18.01
2023-05-10T08:15:45.063Z,17.59
2023-05-10T08:20:48.701Z,16.65
2023-05-10T08:25:53.659Z,17.55
2023-05-10T08:30:57.206Z,15.72
2023-05-10T08:36:00.585Z,16.01
2023-05-10T08:41:07.249Z,16.36
2023-05-10T08:46:12.801Z,18.02
2023-05-10T08:51:19.539Z,18.49
2023-05-10T08:56:24.805Z,20.03
2023-05-10T09:01:29.449Z,19.79
2023-05-10T09:06:33.302Z,19.76
2023-05-10T09:11:38.165Z,19.99
2023-05-10T09:16:42.596Z,19.09
2023-05-10T09:21:46.258Z,18.70
2023-05-10T09:26:51.470Z,19.54
2023-05-10T09:31:55.924Z,18.93
2023-05-10T09:37:02.112Z,18.65
2023-05-10T09:42:08.696Z,17.45
2023-05-10T09:47:12.246Z,15.10
2023-05-10T09:52:15.619Z,15.42
2023-05-10T09:57:23.886Z,14.85
2023-05-10T10:02:31.655Z,13.16
2023-05-10T10:07:36.453Z,12.64
2023-05-10T10:12:42.767Z,12.70
2023-05-10T10:17:47.510Z,12.76
2023-05-10T10:22:51.668Z,11.79
2023-05-10T10:28:11.259Z,11.81
2023-05-10T10:33:41.396Z,10.67
2023-05-10T10:39:00.751Z,12.35
2023-05-10T10:44:41.422Z,13.76
2023-05-10T10:49:46.429Z,15.37
2023-05-10T10:54:54.105Z,15.20
2023-05-10T11:00:26.950Z,16.18
2023-05-10T11:05:48.134Z,15.27
2023-05-10T11:10:54.146Z,15.93
2023-05-10T11:16:00.076Z,15.63
2023-05-10T11:21:06.333Z,15.08
2023-05-10T11:26:12.158Z,14.96
2023-05-10T11:31:18.057Z,15.09
2023-05-10T11:36:23.753Z,15.64
2023-05-10T11:41:29.040Z,14.67
2023-05-10T11:46:34.002Z,14.48
2023-05-10T11:51:38.461Z,14.37
2023-05-10T11:56:42.789Z,14.14
2023-05-10T12:01:47.662Z,15.18
2023-05-10T12:06:51.404Z,13.93
2023-05-10T12:11:58.563Z,14.58
2023-05-10T12:17:03.542Z,16.77
2023-05-10T12:22:07.740Z,16.73
2023-05-10T12:32:52.421Z,18.07
2023-05-10T12:37:56.038Z,18.46
2023-05-10T12:42:59.732Z,19.03
2023-05-10T12:48:04.935Z,19.19
2023-05-10T12:53:08.598Z,19.04
2023-05-10T12:58:15.832Z,18.79
2023-05-10T13:03:25.831Z,19.45
2023-05-10T13:08:31.184Z,19.59
2023-05-10T13:13:35.912Z,19.26
2023-05-10T13:18:40.921Z,19.58
2023-05-10T13:23:44.389Z,18.62
2023-05-10T13:28:47.845Z,18.31
2023-05-10T13:33:52.918Z,18.42
2023-05-10T13:38:57.713Z,19.34
2023-05-10T13:44:01.550Z,19.46
2023-05-10T13:49:07.167Z,19.08
2023-05-10T13:54:13.350Z,18.76
2023-05-10T13:59:17.200Z,19.22
2023-05-10T14:04:22.057Z,19.73
2023-05-10T14:09:25.543Z,19.96
2023-05-10T14:14:30.232Z,20.14
2023-05-10T14:19:35.328Z,20.53
2023-05-10T14:24:38.635Z,20.08
2023-05-10T14:29:42.096Z,21.05
2023-05-10T14:34:46.978Z,22.01
2023-05-10T14:39:50.554Z,22.70
2023-05-10T14:44:54.081Z,23.51
2023-05-10T14:49:59.342Z,23.50
2023-05-10T14:55:02.860Z,23.39
2023-05-10T15:00:08.979Z,23.04
2023-05-10T15:05:14.306Z,24.34
2023-05-10T15:10:18.908Z,24.36
2023-05-10T15:15:23.469Z,24.63
2023-05-10T15:20:28.458Z,25.65
2023-05-10T15:25:32.255Z,26.13
2023-05-10T15:30:35.591Z,25.60
2023-05-10T15:35:40.790Z,26.69
2023-05-10T15:40:44.256Z,27.18
2023-05-10T15:45:47.939Z,27.05
2023-05-10T15:50:52.708Z,28.14
2023-05-10T15:55:56.407Z,28.51
2023-05-10T16:00:59.901Z,27.42
2023-05-10T16:06:04.920Z,27.46
2023-05-10T16:11:09.274Z,27.46
2023-05-10T16:16:13.075Z,27.94
2023-05-10T16:21:18.019Z,28.25
2023-05-10T16:26:22.045Z,28.84
2023-05-10T16:31:25.781Z,29.95
2023-05-10T16:36:31.451Z,30.21
2023-05-10T16:41:35.323Z,30.42
2023-05-10T16:46:39.329Z,31.11
2023-05-10T16:51:44.654Z,32.66
2023-05-10T16:56:48.082Z,32.60
2023-05-10T17:01:53.324Z,32.67
2023-05-10T17:06:58.719Z,33.24
2023-05-10T17:12:04.204Z,35.14
2023-05-10T17:17:08.115Z,35.51
2023-05-10T17:22:13.773Z,36.22
2023-05-10T17:27:17.122Z,36.39
2023-05-10T17:32:20.555Z,37.40
2023-05-10T17:37:25.706Z,38.18
2023-05-10T17:42:29.162Z,39.02
2023-05-10T17:47:32.849Z,39.39
2023-05-10T17:52:37.766Z,39.96
2023-05-10T17:57:41.450Z,41.13
2023-05-10T18:02:44.854Z,40.88
2023-05-10T18:07:49.774Z,40.56
2023-05-10T18:12:53.377Z,41.37
2023-05-10T18:17:57.117Z,41.16
2023-05-10T18:23:02.630Z,41.30
2023-05-10T18:28:08.039Z,43.15
2023-05-10T18:33:12.095Z,44.50
2023-05-10T18:38:17.169Z,44.69
2023-05-10T18:43:20.704Z,44.42
2023-05-10T18:48:24.274Z,43.82
2023-05-10T18:53:29.099Z,43.67
2023-05-10T18:58:33.858Z,44.22
2023-05-10T19:03:37.343Z,43.26
2023-05-10T19:08:42.325Z,43.56
2023-05-10T19:13:46.583Z,44.82
2023-05-10T19:18:51.329Z,45.58
2023-05-10T19:23:57.372Z,46.31
2023-05-10T19:29:00.839Z,46.42
2023-05-10T19:34:05.973Z,46.25
2023-05-10T19:39:10.839Z,46.66
2023-05-10T19:44:14.582Z,45.78
2023-05-10T19:49:18.242Z,47.37
2023-05-10T19:54:23.393Z,48.85
2023-05-10T19:59:26.804Z,49.06
2023-05-10T20:04:30.261Z,49.60
2023-05-10T20:09:35.053Z,50.32
2023-05-10T20:14:38.662Z,49.91
2023-05-10T20:19:43.847Z,50.57
2023-05-10T20:24:48.734Z,50.38
2023-05-10T20:29:52.148Z,50.36
2023-05-10T20:34:56.939Z,50.59
2023-05-10T20:40:02.174Z,50.82
2023-05-10T20:45:08.665Z,51.13
2023-05-10T20:50:12.854Z,51.25
2023-05-10T20:55:17.936Z,51.91
2023-05-10T21:00:21.980Z,51.66
2023-05-10T21:05:25.745Z,51.20
2023-05-10T21:10:30.587Z,52.23
2023-05-10T21:15:34.330Z,52.58
2023-05-10T21:20:37.837Z,53.07
2023-05-10T21:25:42.588Z,53.07
2023-05-10T21:30:46.446Z,52.44
2023-05-10T21:35:50.065Z,52.49
2023-05-10T21:40:55.218Z,53.29
2023-05-10T21:45:58.629Z,53.02
2023-05-10T21:51:02.301Z,53.06
2023-05-10T21:56:07.842Z,53.55
2023-05-10T22:01:11.286Z,51.46
2023-05-10T22:06:14.667Z,52.00
2023-05-10T22:11:19.507Z,53.49
2023-05-10T22:16:23.084Z,53.18
2023-05-10T22:21:26.485Z,53.86
2023-05-10T22:26:31.485Z,54.11
2023-05-10T22:31:34.978Z,53.77
2023-05-10T22:36:38.572Z,54.12
2023-05-10T22:41:43.502Z,53.61
2023-05-10T22:46:47.068Z,53.77
2023-05-10T22:51:50.668Z,54.58
2023-05-10T22:56:57.063Z,54.93
2023-05-10T23:02:00.762Z,54.76
2023-05-10T23:07:04.371Z,53.72
2023-05-10T23:12:09.246Z,54.55
2023-05-10T23:17:12.741Z,55.50
2023-05-10T23:22:16.188Z,55.63
2023-05-10T23:27:21.297Z,55.87
2023-05-10T23:32:24.945Z,55.82
2023-05-10T23:37:28.445Z,56.60
2023-05-10T23:42:34.234Z,57.07
2023-05-10T23:47:37.803Z,56.97
2023-05-10T23:52:41.381Z,57.91
2023-05-10T23:57:46.626Z,57.16
